Terminal Aerodrome Forecast
Issued by NWS

Home | Current Version | Previous Version | Text Only | Print | Product List | Glossary Off
Versions: 1 2 3 4 5 6 7 8 9 10 11 12 13 14 15 16 17

000
FTUS43 KGRB 300500
TAFCWA
TAF
KCWA 300520Z 3006/3106 34003KT P6SM SCT010 SCT070
     FM301000 32002KT 3SM BR SCT008 SCT070
     FM301300 32004KT P6SM SCT100
     FM301800 29009KT P6SM BKN050
     FM310300 29004KT P6SM SCT060
      AMD LTD TO CLD VIS AND WIND TIL 301200=

USA.gov is the U.S. government's official web portal to all federal, state and local government web resources and services.